Flight Track Log - Related Links

Times and Time Zones

All times are in EDT time to prevent confusion due to time zone crossing. See the EGF4432 flight status page for this flight to view local times or setup timezone preferences in your user account.

Time Position Orientation Groundspeed Altitude Reporting Facility
EDT Latitude Longitude Course Direction KTS MPH feet Rate Location/Type
Sun 04:45:46 PM 38.7833 -77.0333 270° West 189 217 2,400  Level Potomac TRACON
Sun 04:46:41 PM 38.7500 -77.0500 201° Southwest 230 265 4,100 1,461 Climbing Potomac TRACON
Sun 04:47:00 PM 38.8500 -77.3922 270° West  Level FlightAware Approximate
Sun 04:47:41 PM 38.7333 -77.1333 256° West 264 304 5,200  Level Potomac TRACON
Sun 04:48:00 PM 38.8500 -77.5119 270° West  Level FlightAware Approximate
Sun 04:49:00 PM 38.8500 -77.6315 270° West  Level FlightAware Approximate
Sun 04:49:12 PM 38.7539 -77.2633 282° West 267 307 9,600  Level Washington Center
Sun 04:50:00 PM 38.8501 -77.7512 270° West  Level FlightAware Approximate
Sun 04:50:13 PM 38.7839 -77.3467 295° West 256 295 11,200  Level Washington Center
Sun 04:51:00 PM 38.8502 -77.8708 270° West  Level FlightAware Approximate
Sun 04:51:13 PM 38.7906 -77.4506 275° West 274 315 12,500  Level Washington Center
Sun 04:52:14 PM 38.8014 -77.5603 277° West 300 345 14,600 1,835 Climbing Washington Center
Sun 04:53:14 PM 38.8100 -77.6669 276° West 300 345 16,200 1,424 Climbing Washington Center
Sun 04:54:12 PM 38.8169 -77.7550 276° West 305 351 17,400 1,119 Climbing Washington Center
Sun 04:55:12 PM 38.8269 -77.8806 276° West 322 371 18,400 1,091 Climbing Washington Center
Sun 04:56:13 PM 38.8372 -78.0008 276° West 335 386 19,600 1,240 Climbing Washington Center
Sun 04:57:13 PM 38.8472 -78.1211 276° West 340 391 20,900 1,240 Climbing Washington Center
Sun 04:58:14 PM 38.8550 -78.2467 275° West 355 409 22,100 1,261 Climbing Washington Center
Sun 04:59:12 PM 38.8542 -78.3719 270° West 355 409 23,400 1,412 Climbing Washington Center
Sun 05:00:13 PM 38.8511 -78.4997 268° West 355 409 24,900 1,377 Climbing Washington Center
Sun 05:01:14 PM 38.8503 -78.6225 270° West 355 409 26,200 1,361 Climbing Washington Center
Sun 05:02:12 PM 38.8492 -78.7478 269° West 355 409 27,600 1,412 Climbing Washington Center
Sun 05:03:13 PM 38.8481 -78.8675 269° West 345 397 29,000 1,190 Climbing Washington Center
Sun 05:04:13 PM 38.8467 -78.9847 269° West 345 397 30,000 496 Climbing Washington Center
Sun 05:05:14 PM 38.8411 -79.1125 267° West 351 404 30,000  Level Washington Center
Sun 05:06:12 PM 38.8164 -79.2419 256° West 357 411 30,000  Level Washington Center
Sun 05:07:12 PM 38.7933 -79.3767 258° West 382 440 30,000 99 Level Washington Center
Sun 05:08:13 PM 38.7719 -79.5272 260° West 393 452 30,200 793 Climbing Washington Center
Sun 05:09:13 PM 38.7469 -79.6536 256° West 383 441 31,600 900 Climbing Washington Center
Sun 05:10:13 PM 38.7258 -79.7803 258° West 378 435 32,000 198 Climbing Washington Center
Sun 05:11:14 PM 38.7025 -79.9039 256° West 371 427 32,000  Level Washington Center
Sun 05:13:46 PM 38.6450 -80.2031 256° West 357 411 32,000  Level Indianapolis Center
Sun 05:14:47 PM 38.6219 -80.3247 256° West 352 405 32,000  Level Indianapolis Center
Sun 05:15:49 PM 38.5983 -80.4617 258° West 349 402 32,000  Level Indianapolis Center
Sun 05:16:51 PM 38.5783 -80.5683 257° West 352 405 32,000  Level Indianapolis Center
Sun 05:17:53 PM 38.5564 -80.6894 257° West 352 405 32,000  Level Indianapolis Center
Sun 05:18:54 PM 38.5289 -80.8336 256° West 347 399 32,000  Level Indianapolis Center
Sun 05:19:56 PM 38.5072 -80.9556 257° West 350 403 32,000  Level Indianapolis Center
Sun 05:20:58 PM 38.4842 -81.0756 256° West 347 399 32,000  Level Indianapolis Center
Sun 05:21:59 PM 38.4611 -81.1953 256° West 345 397 32,000  Level Indianapolis Center
Sun 05:23:01 PM 38.4381 -81.3144 256° West 344 396 32,000  Level Indianapolis Center
Sun 05:24:03 PM 38.4150 -81.4347 256° West 345 397 32,000  Level Indianapolis Center
Sun 05:25:05 PM 38.3922 -81.5531 256° West 342 394 32,000  Level Indianapolis Center
Sun 05:26:06 PM 38.3706 -81.6706 257° West 339 390 32,000  Level Indianapolis Center
Sun 05:27:08 PM 38.3458 -81.7867 255° West 337 388 32,000  Level Indianapolis Center
Sun 05:28:10 PM 38.3144 -81.8983 250° West 334 384 32,000  Level Indianapolis Center
Sun 05:29:12 PM 38.2767 -82.0333 250° West 335 386 32,000  Level Indianapolis Center
Sun 05:30:13 PM 38.2453 -82.1458 250° West 337 388 32,000  Level Indianapolis Center
Sun 05:31:15 PM 38.2125 -82.2581 250° West 337 388 32,000  Level Indianapolis Center
Sun 05:32:17 PM 38.1806 -82.3708 250° West 337 388 32,000  Level Indianapolis Center
Sun 05:33:19 PM 38.1353 -82.4753 241° Southwest 338 389 32,000  Level Indianapolis Center
Sun 05:34:21 PM 38.0842 -82.5858 240° Southwest 335 386 32,000  Level Indianapolis Center
Sun 05:35:23 PM 38.0389 -82.6878 241° Southwest 333 383 32,000  Level Indianapolis Center
Sun 05:36:25 PM 37.9911 -82.7903 239° Southwest 337 388 32,000  Level Indianapolis Center
Sun 05:37:27 PM 37.9447 -82.8925 240° Southwest 335 386 32,000  Level Indianapolis Center
Sun 05:38:29 PM 37.8914 -83.0128 241° Southwest 337 388 32,000  Level Indianapolis Center
Sun 05:39:30 PM 37.8442 -83.1125 239° Southwest 333 383 32,000  Level Indianapolis Center
Sun 05:40:32 PM 37.7975 -83.2119 239° Southwest 330 380 32,000  Level Indianapolis Center
Sun 05:41:34 PM 37.7519 -83.3119 240° Southwest 331 381 32,000  Level Indianapolis Center
Sun 05:42:36 PM 37.7053 -83.4125 240° Southwest 332 382 32,000  Level Indianapolis Center
Sun 05:43:38 PM 37.6500 -83.5306 239° Southwest 336 387 32,000  Level Indianapolis Center
Sun 05:44:40 PM 37.6033 -83.6306 240° Southwest 333 383 32,000  Level Indianapolis Center
Sun 05:45:42 PM 37.5567 -83.7311 240° Southwest 332 382 32,000  Level Indianapolis Center
Sun 05:46:44 PM 37.5092 -83.8303 239° Southwest 332 382 32,000 -145 Level Indianapolis Center
Sun 05:47:46 PM 37.4628 -83.9292 239° Southwest 330 380 31,700 -726 Descending Indianapolis Center
Sun 05:48:48 PM 37.4067 -84.0475 239° Southwest 336 387 30,500 -1,065 Descending Indianapolis Center
Sun 05:49:50 PM 37.3583 -84.1483 239° Southwest 335 386 29,500 -1,016 Descending Indianapolis Center
Sun 05:50:52 PM 37.3111 -84.2483 239° Southwest 334 384 28,400 -1,016 Descending Indianapolis Center
Sun 05:51:54 PM 37.2622 -84.3511 239° Southwest 340 391 27,400 -1,016 Descending Indianapolis Center
Sun 05:52:56 PM 37.2136 -84.4508 239° Southwest 339 390 26,300 -1,016 Descending Indianapolis Center
Sun 05:53:58 PM 37.1642 -84.5561 240° Southwest 350 403 25,300 -1,122 Descending Indianapolis Center
Sun 05:54:59 PM 37.1028 -84.6819 239° Southwest 363 418 24,000 -1,122 Descending Indianapolis Center
Sun 05:56:01 PM 37.0475 -84.7936 238° Southwest 375 432 23,000 -919 Descending Indianapolis Center
Sun 05:57:03 PM 36.9994 -84.8956 239° Southwest 376 433 22,100 -484 Descending Indianapolis Center
Sun 05:58:05 PM 36.9339 -85.0306 239° Southwest 380 437 22,000 -48 Descending Indianapolis Center
Sun 05:59:07 PM 36.8797 -85.1378 238° Southwest 368 423 22,000  Level Indianapolis Center
Sun 06:00:09 PM 36.8294 -85.2406 239° Southwest 355 409 22,000  Level Indianapolis Center
Sun 06:01:11 PM 36.7783 -85.3456 239° Southwest 354 407 22,000  Level Indianapolis Center
Sun 06:01:57 PM 36.7381 -85.4247 238° Southwest 364 419 22,000 -849 Level Memphis Center
Sun 06:02:57 PM 36.6881 -85.5364 241° Southwest 364 419 20,500 -2,250 Descending Memphis Center
Sun 06:03:57 PM 36.6378 -85.6378 238° Southwest 364 419 17,500 -2,800 Descending Memphis Center
Sun 06:04:57 PM 36.5894 -85.7389 239° Southwest 352 405 14,900 -2,200 Descending Memphis Center
Sun 06:05:57 PM 36.5433 -85.8422 241° Southwest 337 388 13,100 -2,050 Descending Memphis Center
Sun 06:06:57 PM 36.5008 -85.9322 240° Southwest 315 362 10,800 -1,550 Descending Memphis Center
Sun 06:07:57 PM 36.4558 -86.0225 238° Southwest 315 362 10,000 -400 Descending Memphis Center
Sun 06:08:57 PM 36.4172 -86.1122 242° Southwest 310 357 10,000 -800 Level Memphis Center
Sun 06:09:57 PM 36.3867 -86.1886 244° Southwest 274 315 8,400 -1,650 Descending Memphis Center
Sun 06:10:57 PM 36.3536 -86.2650 242° Southwest 258 297 6,700 -1,200 Descending Memphis Center
Sun 06:11:57 PM 36.3228 -86.3411 243° Southwest 252 290 6,000 -350 Descending Memphis Center
Sun 06:12:57 PM 36.2939 -86.4097 242° Southwest 247 284 6,000 -300 Level Memphis Center
Sun 06:13:57 PM 36.2772 -86.4800 254° West 234 269 5,400 -1,000 Descending Memphis Center
Sun 06:14:57 PM 36.2775 -86.5519 270° West 224 258 4,000 -1,400 Descending Memphis Center

Login

Don't have an account? Register now (free) for customized features, flight alerts, and more!